Time;durP1;ratioP1;P1;durP2;ratioP2;P2;SDS_P1;SDS_P2;PMS_P1;PMS_P2;Temp;Humidity;BMP_temperature;BMP_pressure;BME280_temperature;BME280_humidity;BME280_pressure;Samples;Min_cycle;Max_cycle;Signal;HPM_P1;HPM_P2
2022/03/29 00:00:42;;;;;;;26.80;20.60;;;14.50;60.90;;;;;;5025514;28;20029;-88
2022/03/29 00:03:08;;;;;;;28.98;21.30;;;14.50;61.00;;;;;;5026464;28;20180;-86
2022/03/29 00:05:35;;;;;;;29.60;21.23;;;14.40;60.80;;;;;;5027240;28;20106;-85
2022/03/29 00:08:02;;;;;;;29.58;22.60;;;14.50;61.10;;;;;;5023522;28;20058;-85
2022/03/29 00:10:29;;;;;;;29.17;20.52;;;14.40;61.00;;;;;;5027810;28;20049;-86
2022/03/29 00:12:55;;;;;;;31.60;21.08;;;14.50;61.20;;;;;;5015983;28;20028;-85
2022/03/29 00:15:22;;;;;;;27.90;21.33;;;14.40;61.10;;;;;;5027078;28;20589;-86
2022/03/29 00:17:50;;;;;;;30.70;21.77;;;14.40;61.20;;;;;;5026768;28;20388;-86
2022/03/29 00:20:20;;;;;;;30.15;22.33;;;14.40;61.30;;;;;;5028259;28;20063;-86
2022/03/29 00:22:48;;;;;;;29.38;22.67;;;14.40;61.40;;;;;;5008878;28;20507;-87
2022/03/29 00:25:16;;;;;;;29.50;21.05;;;14.40;61.40;;;;;;5026783;28;20080;-87
2022/03/29 00:27:42;;;;;;;33.00;21.33;;;14.30;61.30;;;;;;5026971;28;20029;-85
2022/03/29 00:30:11;;;;;;;31.50;22.10;;;14.30;61.40;;;;;;5026061;28;20037;-85
2022/03/29 00:32:40;;;;;;;28.58;20.65;;;14.30;61.40;;;;;;5008046;28;20030;-85
2022/03/29 00:35:08;;;;;;;29.42;21.33;;;14.30;61.60;;;;;;5039382;28;20459;-87
2022/03/29 00:37:35;;;;;;;36.17;23.48;;;14.20;61.40;;;;;;5019252;28;20034;-86
2022/03/29 00:40:01;;;;;;;33.30;22.48;;;14.20;61.50;;;;;;5014831;28;20072;-84
2022/03/29 00:42:27;;;;;;;28.25;20.85;;;14.20;61.60;;;;;;5015323;28;20124;-85
2022/03/29 00:44:56;;;;;;;29.10;22.00;;;14.20;61.70;;;;;;5012634;28;20691;-85
2022/03/29 00:47:23;;;;;;;29.92;21.50;;;14.20;61.70;;;;;;5018420;28;20090;-87
2022/03/29 00:49:49;;;;;;;32.15;21.58;;;14.20;61.80;;;;;;5024150;28;20038;-84
2022/03/29 00:52:17;;;;;;;28.92;21.25;;;14.20;61.90;;;;;;5032372;28;20034;-85
2022/03/29 00:54:43;;;;;;;28.52;21.48;;;14.20;61.90;;;;;;5011859;28;20562;-85
2022/03/29 00:57:11;;;;;;;29.38;21.17;;;14.20;62.00;;;;;;5037153;28;20096;-87
2022/03/29 00:59:39;;;;;;;33.30;23.40;;;14.10;61.90;;;;;;5023199;28;20029;-86
2022/03/29 01:02:05;;;;;;;32.92;22.73;;;14.10;62.00;;;;;;5032677;28;20612;-84
2022/03/29 01:04:32;;;;;;;30.63;22.45;;;14.10;62.00;;;;;;5029536;28;20029;-84
2022/03/29 01:06:58;;;;;;;31.13;20.75;;;14.10;62.10;;;;;;5027019;28;20032;-85
2022/03/29 01:09:29;;;;;;;31.25;21.95;;;14.10;62.20;;;;;;5024145;28;20045;-84
2022/03/29 01:11:59;;;;;;;31.80;23.65;;;14.10;62.30;;;;;;5023218;28;20226;-85
2022/03/29 01:14:27;;;;;;;28.92;22.58;;;14.10;62.80;;;;;;5009816;28;20041;-86
2022/03/29 01:19:40;;;;;;;27.92;20.45;;;14.00;62.20;;;;;;5026687;28;20400;-86
2022/03/29 01:22:09;;;;;;;30.45;21.80;;;14.00;62.20;;;;;;5035098;28;20029;-86
2022/03/29 01:24:36;;;;;;;29.55;21.67;;;14.00;62.30;;;;;;5014029;28;20296;-85
2022/03/29 01:27:07;;;;;;;29.30;20.95;;;14.00;62.40;;;;;;5025007;28;20075;-87
2022/03/29 01:29:35;;;;;;;29.15;22.30;;;14.00;62.50;;;;;;5020111;28;20041;-88
2022/03/29 01:32:03;;;;;;;30.35;20.98;;;13.90;62.40;;;;;;5021455;28;20026;-88
2022/03/29 01:34:31;;;;;;;31.42;22.13;;;13.90;62.40;;;;;;5016787;28;20571;-86
2022/03/29 01:36:57;;;;;;;34.45;23.83;;;13.90;62.50;;;;;;5031556;28;20038;-86
2022/03/29 01:39:53;;;;;;;28.73;21.25;;;13.90;62.50;;;;;;5029109;28;20025;-89
2022/03/29 01:43:18;;;;;;;32.42;23.63;;;13.90;62.60;;;;;;5088539;28;20028;-86
2022/03/29 01:46:53;;;;;;;35.13;22.27;;;13.80;62.50;;;;;;5050397;28;20348;-84
2022/03/29 01:50:00;;;;;;;34.03;22.38;;;13.80;62.50;;;;;;5055418;28;20033;-85
2022/03/29 02:05:53;;;;;;;32.33;23.45;;;13.80;62.60;;;;;;3372881;23;20028;-85
2022/03/29 02:09:39;;;;;;;33.72;23.63;;;13.70;62.60;;;;;;5020866;28;20050;-84
2022/03/29 02:13:17;;;;;;;30.38;22.55;;;13.70;62.70;;;;;;5035770;28;20022;-85
2022/03/29 02:16:11;;;;;;;30.05;20.80;;;13.70;62.70;;;;;;4989414;28;20106;-86
2022/03/29 02:23:21;;;;;;;32.58;21.75;;;13.70;62.80;;;;;;5071534;28;20025;-88
2022/03/29 02:26:11;;;;;;;32.60;22.35;;;13.70;62.60;;;;;;5058306;28;20100;-84
2022/03/29 02:28:37;;;;;;;30.38;22.17;;;13.60;62.60;;;;;;5083996;28;20044;-84
2022/03/29 02:31:04;;;;;;;32.67;22.23;;;13.60;62.70;;;;;;5079482;28;20555;-85
2022/03/29 02:33:30;;;;;;;29.80;22.17;;;13.60;62.80;;;;;;5093900;28;20040;-84
2022/03/29 02:35:56;;;;;;;31.80;23.15;;;13.60;63.50;;;;;;5094513;28;20029;-86
2022/03/29 02:38:51;;;;;;;32.65;22.00;;;13.50;62.80;;;;;;5078206;28;20017;-87
2022/03/29 02:41:55;;;;;;;32.15;21.98;;;13.50;63.00;;;;;;5085392;28;20121;-85
2022/03/29 02:52:20;;;;;;;29.60;21.13;;;13.60;63.10;;;;;;5095825;28;20035;-86
2022/03/29 02:55:53;;;;;;;33.30;22.45;;;13.50;63.00;;;;;;5094472;28;20017;-86
2022/03/29 03:01:36;;;;;;;33.15;22.70;;;13.50;63.00;;;;;;5042629;28;20076;-86
2022/03/29 03:04:02;;;;;;;30.17;20.70;;;13.50;63.00;;;;;;5052809;28;20002;-85
2022/03/29 03:06:28;;;;;;;31.65;22.02;;;13.50;63.20;;;;;;5089768;28;20053;-84
2022/03/29 03:08:54;;;;;;;29.33;21.42;;;13.40;63.10;;;;;;5073378;28;20037;-85
2022/03/29 03:11:21;;;;;;;33.75;23.38;;;13.40;63.10;;;;;;5068113;28;20062;-87
2022/03/29 03:13:46;;;;;;;30.15;21.83;;;13.40;63.20;;;;;;5052824;28;20072;-87
2022/03/29 03:16:13;;;;;;;30.27;21.48;;;13.50;63.50;;;;;;5030787;28;20452;-86
2022/03/29 03:18:39;;;;;;;31.42;21.77;;;13.40;63.30;;;;;;5032949;28;20084;-87
2022/03/29 03:21:05;;;;;;;30.23;22.88;;;13.40;63.40;;;;;;5050071;28;20060;-87
2022/03/29 03:23:31;;;;;;;28.88;22.10;;;13.40;63.50;;;;;;5050127;28;20032;-88
2022/03/29 03:25:56;;;;;;;33.38;22.35;;;13.40;63.50;;;;;;5049666;28;20028;-88
2022/03/29 03:28:22;;;;;;;33.58;23.17;;;13.40;63.60;;;;;;5058968;28;20024;-88
2022/03/29 03:30:50;;;;;;;31.92;22.13;;;13.40;63.60;;;;;;5016217;28;20491;-88
2022/03/29 03:33:15;;;;;;;33.05;23.83;;;13.40;63.60;;;;;;5049248;28;20036;-88
2022/03/29 03:35:41;;;;;;;33.58;23.10;;;13.30;63.50;;;;;;5049036;28;20029;-86
2022/03/29 03:38:08;;;;;;;34.80;24.73;;;13.30;63.50;;;;;;5049158;28;20120;-87
2022/03/29 03:40:33;;;;;;;33.25;23.55;;;13.30;63.60;;;;;;5049742;28;20559;-87
2022/03/29 03:43:01;;;;;;;32.03;22.73;;;13.30;63.70;;;;;;5044713;28;20059;-85
2022/03/29 03:45:27;;;;;;;34.50;24.63;;;13.30;63.70;;;;;;5041651;28;20060;-86
2022/03/29 03:47:54;;;;;;;29.90;22.42;;;13.30;63.70;;;;;;5017854;28;20053;-88
2022/03/29 03:50:20;;;;;;;34.88;24.27;;;13.30;63.80;;;;;;5052279;28;20029;-86
2022/03/29 03:52:47;;;;;;;33.22;25.52;;;13.30;63.80;;;;;;5049265;28;20525;-87
2022/03/29 03:55:13;;;;;;;33.63;23.90;;;13.30;63.80;;;;;;5053115;28;20033;-89
2022/03/29 03:57:39;;;;;;;31.20;23.65;;;13.30;63.80;;;;;;5032421;28;20030;-86
2022/03/29 04:00:06;;;;;;;32.03;24.25;;;13.30;63.90;;;;;;5030594;28;20043;-84
2022/03/29 04:02:38;;;;;;;31.40;24.38;;;13.30;63.90;;;;;;5039090;28;20025;-84
2022/03/29 04:05:08;;;;;;;31.63;23.30;;;13.30;63.90;;;;;;5037610;28;20064;-85
2022/03/29 04:07:34;;;;;;;32.35;23.15;;;13.30;63.90;;;;;;5032849;28;20425;-87
2022/03/29 04:10:01;;;;;;;30.67;22.52;;;13.30;63.90;;;;;;5044890;28;20068;-85
2022/03/29 04:12:27;;;;;;;33.13;24.15;;;13.20;63.80;;;;;;5049493;28;20040;-85
2022/03/29 04:14:54;;;;;;;35.35;24.17;;;13.20;63.80;;;;;;5034533;28;20343;-86
2022/03/29 04:17:20;;;;;;;30.15;23.52;;;13.20;63.90;;;;;;5051885;28;20335;-85
2022/03/29 04:19:46;;;;;;;34.50;25.20;;;13.20;63.90;;;;;;5049177;28;20551;-84
2022/03/29 04:22:12;;;;;;;31.77;23.85;;;13.20;64.00;;;;;;5034125;28;20116;-87
2022/03/29 04:24:38;;;;;;;32.25;24.80;;;13.10;63.80;;;;;;5031446;28;20029;-86
2022/03/29 04:27:05;;;;;;;31.95;24.38;;;13.20;64.10;;;;;;5030889;28;20031;-83
2022/03/29 04:29:31;;;;;;;31.55;23.88;;;13.20;64.10;;;;;;5048282;28;20392;-87
2022/03/29 04:31:57;;;;;;;31.63;23.15;;;13.10;64.00;;;;;;5048777;28;20029;-90
2022/03/29 04:34:23;;;;;;;29.05;23.45;;;13.10;64.00;;;;;;5048858;28;20189;-93
2022/03/29 04:36:49;;;;;;;33.53;24.10;;;13.10;64.10;;;;;;5031121;28;20513;-93
2022/03/29 04:39:15;;;;;;;32.35;24.58;;;13.10;64.10;;;;;;5024215;28;20432;-93
2022/03/29 04:41:40;;;;;;;31.25;23.73;;;13.10;64.20;;;;;;5032788;28;20033;-93
2022/03/29 04:44:06;;;;;;;31.95;23.10;;;13.10;64.20;;;;;;5028310;28;20144;-91
2022/03/29 04:46:32;;;;;;;32.25;24.02;;;13.10;64.30;;;;;;5027591;28;20029;-89
2022/03/29 04:48:58;;;;;;;33.70;24.05;;;13.10;64.30;;;;;;5055611;28;20033;-86
2022/03/29 04:51:24;;;;;;;31.13;23.90;;;13.10;64.40;;;;;;5051764;28;20491;-89
2022/03/29 04:53:50;;;;;;;31.25;23.92;;;13.10;64.40;;;;;;5027857;28;20032;-89
2022/03/29 04:56:16;;;;;;;33.03;24.40;;;13.10;64.40;;;;;;5047601;28;20021;-88
2022/03/29 04:58:43;;;;;;;33.05;24.20;;;13.10;64.40;;;;;;5042924;28;20037;-89
2022/03/29 05:01:09;;;;;;;30.85;21.80;;;13.10;64.50;;;;;;5049193;28;20063;-88
2022/03/29 05:03:35;;;;;;;29.98;23.17;;;13.10;64.50;;;;;;5020994;28;20033;-91
2022/03/29 05:06:01;;;;;;;29.23;23.33;;;13.10;64.50;;;;;;5034569;28;20043;-87
2022/03/29 05:08:27;;;;;;;29.92;22.77;;;13.10;64.60;;;;;;5049015;28;20411;-86
2022/03/29 05:10:53;;;;;;;33.15;25.98;;;13.10;64.60;;;;;;5033548;28;20037;-88
2022/03/29 05:13:19;;;;;;;33.13;25.27;;;13.10;64.60;;;;;;5059049;28;20036;-86
2022/03/29 05:15:45;;;;;;;29.50;22.20;;;13.10;64.60;;;;;;5060147;28;20392;-87
2022/03/29 05:18:43;;;;;;;32.03;24.13;;;13.10;64.70;;;;;;5054577;28;20040;-85
2022/03/29 05:21:12;;;;;;;28.55;22.48;;;13.10;64.70;;;;;;5037738;28;20040;-87
2022/03/29 05:23:40;;;;;;;31.42;23.73;;;13.00;64.50;;;;;;5073368;28;20056;-89
2022/03/29 05:26:49;;;;;;;30.05;23.45;;;13.00;64.50;;;;;;5072616;28;20016;-91
2022/03/29 05:29:41;;;;;;;;;;;13.00;64.70;;;;;;5067128;28;20171;-87
2022/03/29 05:32:07;;;;;;;31.67;23.45;;;13.00;65.00;;;;;;5050139;28;19984;-87
2022/03/29 05:34:33;;;;;;;30.13;22.83;;;13.00;64.30;;;;;;5067958;28;20242;-88
2022/03/29 05:36:59;;;;;;;28.90;22.25;;;13.00;64.40;;;;;;5050123;28;20033;-87
2022/03/29 05:39:25;;;;;;;29.55;22.30;;;13.00;64.50;;;;;;5053951;28;20036;-84
2022/03/29 05:41:51;;;;;;;27.25;22.58;;;13.00;64.60;;;;;;5057213;28;20356;-82
2022/03/29 05:44:16;;;;;;;31.17;23.35;;;13.00;64.70;;;;;;5041765;28;20025;-84
2022/03/29 05:49:28;;;;;;;28.92;22.85;;;13.00;64.70;;;;;;5044951;28;20049;-77
2022/03/29 05:51:54;;;;;;;29.02;23.48;;;13.00;64.70;;;;;;5037338;28;20029;-80
2022/03/29 05:54:20;;;;;;;30.23;22.63;;;13.00;64.80;;;;;;5036533;28;20052;-79
2022/03/29 05:56:46;;;;;;;28.58;23.08;;;13.00;64.80;;;;;;5042567;28;20021;-80
2022/03/29 05:59:12;;;;;;;29.65;23.60;;;13.00;64.90;;;;;;5026651;28;20432;-78
2022/03/29 06:01:38;;;;;;;29.58;22.52;;;13.00;64.90;;;;;;5040735;28;20033;-78
2022/03/29 06:04:06;;;;;;;29.10;21.92;;;13.00;65.00;;;;;;5015001;28;20013;-79
2022/03/29 06:06:34;;;;;;;28.50;23.98;;;13.00;65.00;;;;;;5025877;28;20310;-78
2022/03/29 06:09:00;;;;;;;26.55;21.00;;;13.00;65.10;;;;;;5045740;28;20309;-81
2022/03/29 06:11:26;;;;;;;29.58;22.40;;;13.00;65.10;;;;;;5044676;28;20033;-77
2022/03/29 06:13:52;;;;;;;31.05;23.30;;;13.00;65.50;;;;;;5031432;28;20384;-76
2022/03/29 06:16:18;;;;;;;31.45;23.90;;;13.00;65.90;;;;;;5043320;28;20081;-77
2022/03/29 06:18:44;;;;;;;33.83;25.23;;;13.10;66.40;;;;;;5027218;28;20407;-77
2022/03/29 06:21:10;;;;;;;31.50;24.60;;;13.10;66.50;;;;;;5045016;28;20546;-76
2022/03/29 06:23:35;;;;;;;32.25;25.17;;;13.10;66.60;;;;;;5028421;28;20039;-75
2022/03/29 06:26:01;;;;;;;34.15;25.60;;;13.10;66.60;;;;;;5043051;28;20134;-79
2022/03/29 06:28:27;;;;;;;34.10;25.02;;;13.10;66.60;;;;;;5041826;28;20095;-78
2022/03/29 06:30:53;;;;;;;33.08;25.70;;;13.10;66.60;;;;;;5037535;28;20514;-77
2022/03/29 06:33:20;;;;;;;35.55;25.77;;;13.10;66.60;;;;;;5045823;28;20033;-77
2022/03/29 06:35:46;;;;;;;33.50;25.75;;;13.10;66.60;;;;;;5030857;28;20101;-77
2022/03/29 06:38:11;;;;;;;35.15;26.35;;;13.10;66.60;;;;;;5042748;28;20531;-77
2022/03/29 06:40:38;;;;;;;33.67;25.75;;;13.10;66.60;;;;;;5020655;28;20143;-77
2022/03/29 06:43:04;;;;;;;37.60;27.30;;;13.10;66.60;;;;;;5031593;28;20075;-78
2022/03/29 06:45:30;;;;;;;42.22;28.25;;;13.10;66.60;;;;;;5043859;28;20085;-78
2022/03/29 06:47:57;;;;;;;35.95;26.23;;;13.10;66.50;;;;;;5041971;28;20111;-77
2022/03/29 06:50:24;;;;;;;34.50;26.63;;;13.10;66.50;;;;;;5044797;28;20048;-77
2022/03/29 06:52:49;;;;;;;37.20;27.95;;;13.10;66.50;;;;;;5041067;28;20052;-77
2022/03/29 06:55:18;;;;;;;35.42;26.55;;;13.10;66.50;;;;;;5044475;28;20515;-76
2022/03/29 06:57:44;;;;;;;36.70;26.73;;;13.10;66.50;;;;;;5010859;28;20029;-77
2022/03/29 07:00:12;;;;;;;35.15;27.48;;;13.10;66.40;;;;;;5028153;28;20029;-78
2022/03/29 07:02:38;;;;;;;36.55;26.90;;;13.10;66.40;;;;;;5043399;28;20511;-77
2022/03/29 07:05:06;;;;;;;36.50;27.52;;;13.00;66.20;;;;;;5039329;28;20021;-77
2022/03/29 07:07:32;;;;;;;37.08;27.02;;;13.00;66.10;;;;;;5027826;28;20036;-76
2022/03/29 07:13:11;;;;;;;35.67;26.92;;;13.00;66.10;;;;;;5045385;28;20128;-77
2022/03/29 07:15:36;;;;;;;35.55;27.58;;;13.00;66.10;;;;;;5051395;28;20041;-75
2022/03/29 07:18:03;;;;;;;37.00;26.25;;;13.00;66.00;;;;;;4991797;28;20084;-75
2022/03/29 07:20:29;;;;;;;36.95;26.45;;;13.00;66.00;;;;;;5045518;28;20075;-75
2022/03/29 07:22:56;;;;;;;36.20;26.23;;;13.00;65.90;;;;;;5045651;28;20033;-75
2022/03/29 07:25:23;;;;;;;36.00;26.88;;;13.00;65.90;;;;;;5052809;28;20079;-75
2022/03/29 07:27:49;;;;;;;34.63;28.05;;;13.10;66.10;;;;;;5021693;28;20039;-76
2022/03/29 07:30:15;;;;;;;34.28;25.92;;;13.00;65.80;;;;;;5043665;28;20080;-75
2022/03/29 07:32:46;;;;;;;33.83;25.27;;;13.00;65.80;;;;;;5042525;28;20091;-76
2022/03/29 07:35:14;;;;;;;36.60;25.95;;;13.10;66.00;;;;;;5042310;28;20037;-77
2022/03/29 07:37:40;;;;;;;34.17;24.15;;;13.10;65.90;;;;;;5042027;28;20469;-77
2022/03/29 07:40:08;;;;;;;32.63;23.73;;;13.10;65.90;;;;;;5023928;28;20028;-77
2022/03/29 07:42:37;;;;;;;32.95;23.40;;;13.10;66.30;;;;;;5033910;28;20033;-77
2022/03/29 07:45:06;;;;;;;36.67;26.48;;;13.10;65.70;;;;;;5044135;28;20036;-77
2022/03/29 07:47:34;;;;;;;31.73;25.00;;;13.10;65.70;;;;;;5031910;28;20032;-77
2022/03/29 07:50:06;;;;;;;31.80;24.20;;;13.10;65.60;;;;;;5044759;28;20048;-78
2022/03/29 07:52:37;;;;;;;34.45;24.70;;;13.10;65.60;;;;;;5042868;28;20032;-77
2022/03/29 07:55:04;;;;;;;32.22;23.92;;;13.10;65.60;;;;;;5044910;28;20396;-76
2022/03/29 07:57:30;;;;;;;33.55;23.40;;;13.20;65.70;;;;;;5025887;28;20033;-78
2022/03/29 07:59:56;;;;;;;31.20;24.25;;;13.20;65.70;;;;;;5038410;28;20237;-77
2022/03/29 08:02:22;;;;;;;32.08;25.75;;;13.20;65.60;;;;;;5043287;28;20021;-77
2022/03/29 08:04:48;;;;;;;30.95;23.48;;;13.20;65.60;;;;;;5056285;28;20028;-78
2022/03/29 08:07:14;;;;;;;34.15;23.70;;;13.20;65.60;;;;;;5030341;28;20290;-76
2022/03/29 08:09:40;;;;;;;30.60;23.02;;;13.20;65.60;;;;;;5050857;28;20417;-76
2022/03/29 08:12:07;;;;;;;34.22;23.58;;;13.20;65.50;;;;;;5026365;28;20044;-75
2022/03/29 08:14:33;;;;;;;28.70;22.23;;;13.30;65.60;;;;;;5044373;28;20430;-77
2022/03/29 08:16:59;;;;;;;30.63;22.00;;;13.30;65.50;;;;;;5047688;28;20033;-77
2022/03/29 08:19:25;;;;;;;34.00;23.70;;;13.30;65.40;;;;;;5045431;28;20411;-76
2022/03/29 08:21:52;;;;;;;33.38;24.70;;;13.30;65.30;;;;;;5023302;28;20033;-76
2022/03/29 08:24:25;;;;;;;34.42;23.85;;;13.40;65.40;;;;;;5027383;28;20024;-76
2022/03/29 08:26:53;;;;;;;28.42;21.55;;;13.40;65.30;;;;;;5041756;28;20453;-76
2022/03/29 08:29:21;;;;;;;32.08;23.80;;;13.50;65.30;;;;;;5044226;28;20629;-75
2022/03/29 08:31:49;;;;;;;35.33;24.48;;;13.60;65.30;;;;;;5016554;28;20127;-76
2022/03/29 08:34:17;;;;;;;30.63;22.52;;;13.70;65.30;;;;;;5055099;28;20435;-78
2022/03/29 08:36:43;;;;;;;33.20;23.67;;;13.70;65.10;;;;;;5042530;28;20140;-76
2022/03/29 08:39:10;;;;;;;31.23;23.40;;;13.80;65.10;;;;;;5043510;28;20554;-76
2022/03/29 08:41:52;;;;;;;28.83;22.50;;;13.90;65.10;;;;;;5017237;28;20060;-76
2022/03/29 08:44:19;;;;;;;33.03;23.30;;;14.00;65.10;;;;;;5046202;28;20063;-77
2022/03/29 08:46:47;;;;;;;30.48;21.98;;;14.10;65.10;;;;;;5042121;28;20040;-77
2022/03/29 08:49:17;;;;;;;29.33;21.95;;;14.10;64.90;;;;;;5043139;28;20247;-76
2022/03/29 08:51:43;;;;;;;32.00;23.67;;;14.20;64.90;;;;;;5042918;28;20267;-76
2022/03/29 08:54:09;;;;;;;28.88;23.20;;;14.30;64.90;;;;;;5042422;28;20424;-76
2022/03/29 08:56:35;;;;;;;28.42;21.05;;;14.30;64.70;;;;;;5041875;28;20064;-75
2022/03/29 08:59:01;;;;;;;31.02;23.15;;;14.40;64.70;;;;;;5043669;28;20612;-77
2022/03/29 09:01:27;;;;;;;30.20;22.83;;;14.40;64.60;;;;;;5042499;28;20039;-77
2022/03/29 09:04:07;;;;;;;27.02;20.98;;;14.50;64.60;;;;;;5048608;28;20041;-79
2022/03/29 09:06:54;;;;;;;26.70;21.58;;;14.50;64.50;;;;;;5046799;28;20058;-78
2022/03/29 09:09:26;;;;;;;24.15;19.42;;;14.50;64.40;;;;;;5026251;28;20043;-83
2022/03/29 09:11:54;;;;;;;23.00;17.20;;;14.60;64.60;;;;;;5024308;28;20037;-79
2022/03/29 09:14:24;;;;;;;22.80;17.30;;;14.70;65.00;;;;;;5052412;28;20059;-79
2022/03/29 09:16:51;;;;;;;26.52;18.98;;;14.80;65.20;;;;;;5039999;28;20199;-78
2022/03/29 09:19:21;;;;;;;26.98;18.25;;;14.90;65.20;;;;;;5043182;28;20032;-80
2022/03/29 09:21:47;;;;;;;26.00;20.17;;;15.00;65.20;;;;;;5041620;28;20032;-78
2022/03/29 09:24:17;;;;;;;26.60;20.45;;;15.00;65.00;;;;;;5050532;28;20081;-78
2022/03/29 09:26:54;;;;;;;28.23;21.20;;;15.00;64.80;;;;;;5041575;28;20029;-79
2022/03/29 09:29:24;;;;;;;28.67;20.52;;;15.00;64.70;;;;;;5043118;28;20205;-78
2022/03/29 09:32:08;;;;;;;26.20;19.30;;;15.00;64.60;;;;;;5041493;28;20037;-78
2022/03/29 09:34:35;;;;;;;30.08;20.63;;;15.00;64.40;;;;;;5046437;28;20349;-78
2022/03/29 09:37:03;;;;;;;26.33;19.02;;;15.10;64.50;;;;;;5026603;28;20037;-79
2022/03/29 09:39:31;;;;;;;24.52;19.77;;;15.10;64.30;;;;;;5023476;28;20052;-79
2022/03/29 09:41:59;;;;;;;23.38;18.73;;;15.10;64.20;;;;;;5007380;28;20592;-78
2022/03/29 09:44:47;;;;;;;28.05;20.20;;;15.10;64.10;;;;;;5041397;28;20119;-78
2022/03/29 09:47:20;;;;;;;24.92;18.65;;;15.20;64.10;;;;;;5033194;28;20052;-79
2022/03/29 09:50:01;;;;;;;25.77;18.60;;;15.10;63.80;;;;;;5024920;28;20400;-78
2022/03/29 09:52:30;;;;;;;23.15;17.85;;;15.20;63.70;;;;;;5024803;28;20517;-79
2022/03/29 09:55:09;;;;;;;23.65;18.02;;;15.10;63.50;;;;;;5007903;28;20074;-79
2022/03/29 09:57:41;;;;;;;22.83;17.40;;;15.20;63.50;;;;;;5033671;28;20033;-78
2022/03/29 10:00:09;;;;;;;22.40;17.80;;;15.20;63.30;;;;;;5041597;28;20025;-78
2022/03/29 10:02:44;;;;;;;21.23;18.38;;;15.20;63.20;;;;;;5041014;28;20040;-78
2022/03/29 10:05:11;;;;;;;24.17;17.88;;;15.20;63.10;;;;;;5053897;28;20036;-78
2022/03/29 10:07:50;;;;;;;25.92;18.60;;;15.20;63.00;;;;;;5042002;28;20028;-78
2022/03/29 10:10:16;;;;;;;21.98;17.30;;;15.20;62.80;;;;;;5024443;28;20089;-78
2022/03/29 10:12:43;;;;;;;20.23;17.02;;;15.20;62.70;;;;;;5042099;28;20192;-78
2022/03/29 10:15:13;;;;;;;23.85;17.45;;;15.30;62.70;;;;;;5049071;28;20441;-78
2022/03/29 10:17:40;;;;;;;22.92;17.15;;;15.30;62.50;;;;;;5046082;28;20053;-78
2022/03/29 10:20:08;;;;;;;24.17;17.13;;;15.30;62.40;;;;;;5024497;28;20048;-78
2022/03/29 10:22:36;;;;;;;26.48;16.92;;;15.30;62.20;;;;;;5041977;28;20508;-78
2022/03/29 10:25:02;;;;;;;23.90;17.27;;;15.30;62.60;;;;;;5023664;28;20496;-79
2022/03/29 10:27:29;;;;;;;22.83;16.63;;;15.40;62.20;;;;;;5035144;28;20021;-79
2022/03/29 10:29:56;;;;;;;22.85;16.23;;;15.40;62.00;;;;;;5040926;28;20041;-79
2022/03/29 10:32:31;;;;;;;21.27;16.48;;;15.40;61.80;;;;;;5027339;28;20121;-80
2022/03/29 10:35:08;;;;;;;20.38;15.73;;;15.50;61.80;;;;;;5034902;28;20373;-77
2022/03/29 10:37:55;;;;;;;22.73;16.75;;;15.50;61.60;;;;;;5022822;28;20059;-80
2022/03/29 10:40:41;;;;;;;20.63;16.13;;;15.50;61.40;;;;;;5039309;28;20029;-81
2022/03/29 10:43:25;;;;;;;17.83;14.13;;;15.60;61.60;;;;;;5050246;28;20060;-81
2022/03/29 10:45:51;;;;;;;20.27;14.98;;;15.60;61.60;;;;;;5043724;28;20049;-78
2022/03/29 10:48:17;;;;;;;21.15;15.70;;;15.70;61.80;;;;;;5047120;28;20032;-81
2022/03/29 10:50:58;;;;;;;22.65;14.95;;;15.70;61.50;;;;;;5039112;28;20041;-82
2022/03/29 10:53:45;;;;;;;22.60;14.90;;;15.80;61.40;;;;;;5050747;28;20033;-82
2022/03/29 10:56:13;;;;;;;19.65;14.20;;;15.80;61.30;;;;;;5062107;28;20069;-84
2022/03/29 10:59:01;;;;;;;19.40;14.93;;;15.80;61.20;;;;;;5046339;28;20044;-83
2022/03/29 11:01:27;;;;;;;18.45;14.85;;;15.80;61.00;;;;;;5040345;28;20433;-82
2022/03/29 11:04:07;;;;;;;23.95;15.02;;;15.90;61.10;;;;;;5027735;28;21096;-83
2022/03/29 11:06:35;;;;;;;15.80;13.30;;;15.90;61.00;;;;;;5045741;28;20063;-81
2022/03/29 11:09:05;;;;;;;19.23;14.95;;;15.90;60.90;;;;;;5035081;28;20029;-82
2022/03/29 11:11:48;;;;;;;20.40;14.18;;;15.90;60.70;;;;;;5023120;28;20431;-81
2022/03/29 11:14:30;;;;;;;21.67;17.02;;;15.90;60.50;;;;;;5048926;28;20025;-81
2022/03/29 11:17:09;;;;;;;19.40;13.73;;;16.00;60.50;;;;;;5033832;28;20033;-82
2022/03/29 11:19:47;;;;;;;21.10;15.80;;;16.00;60.40;;;;;;5021768;28;20053;-80
2022/03/29 11:22:22;;;;;;;20.65;14.45;;;16.00;60.30;;;;;;5041722;28;20032;-82
2022/03/29 11:24:53;;;;;;;21.30;15.10;;;16.00;60.20;;;;;;5039400;28;20029;-86
2022/03/29 11:27:26;;;;;;;25.92;15.00;;;16.00;60.10;;;;;;4998916;28;20024;-82
2022/03/29 11:29:52;;;;;;;;;;;16.00;60.00;;;;;;5041833;28;20047;-82
2022/03/29 11:32:19;;;;;;;18.95;14.02;;;16.00;59.90;;;;;;5039179;28;19966;-81
2022/03/29 11:34:50;;;;;;;20.83;16.08;;;16.10;60.10;;;;;;5028012;28;20036;-79
2022/03/29 11:37:30;;;;;;;20.08;14.77;;;16.10;59.90;;;;;;5039841;28;20032;-79
2022/03/29 11:39:57;;;;;;;18.75;14.35;;;16.10;59.70;;;;;;5042347;28;20553;-79
2022/03/29 11:42:24;;;;;;;19.45;16.02;;;16.10;59.60;;;;;;5041326;28;20768;-79
2022/03/29 11:44:51;;;;;;;22.30;15.52;;;16.20;59.70;;;;;;5027638;28;20033;-80
2022/03/29 11:47:18;;;;;;;22.10;15.93;;;16.20;59.50;;;;;;5034563;28;20079;-79
2022/03/29 11:49:46;;;;;;;20.85;15.77;;;16.20;59.30;;;;;;5037068;28;20685;-78
2022/03/29 11:52:14;;;;;;;18.90;15.63;;;16.30;59.40;;;;;;5042410;28;20032;-79
2022/03/29 11:54:40;;;;;;;20.02;14.77;;;16.30;59.20;;;;;;5026729;28;20423;-78
2022/03/29 11:57:14;;;;;;;18.52;14.70;;;16.30;59.00;;;;;;5042645;28;20020;-78
2022/03/29 11:59:41;;;;;;;18.25;14.82;;;16.40;59.00;;;;;;5026559;28;20451;-79
2022/03/29 12:02:07;;;;;;;17.38;15.45;;;16.40;58.90;;;;;;5044174;28;20028;-79
2022/03/29 12:04:33;;;;;;;20.30;15.00;;;16.50;58.90;;;;;;5054801;28;20036;-77
2022/03/29 12:06:59;;;;;;;19.35;15.40;;;16.50;58.80;;;;;;5049691;28;20056;-77
2022/03/29 12:09:26;;;;;;;19.92;15.75;;;16.50;58.80;;;;;;5068690;28;20044;-78
2022/03/29 12:11:56;;;;;;;22.40;16.13;;;16.50;58.70;;;;;;5067445;28;20021;-78
2022/03/29 12:14:23;;;;;;;17.90;14.93;;;16.50;58.70;;;;;;5063547;28;20047;-77
2022/03/29 12:16:54;;;;;;;19.65;14.95;;;16.40;58.60;;;;;;5079142;28;20040;-77
2022/03/29 12:19:28;;;;;;;18.13;15.55;;;16.30;58.40;;;;;;5067601;28;20079;-77
2022/03/29 12:21:57;;;;;;;21.55;16.65;;;16.30;58.50;;;;;;5057089;28;20032;-78
2022/03/29 12:24:25;;;;;;;20.33;15.65;;;16.30;58.60;;;;;;5067057;28;20324;-78
2022/03/29 12:27:04;;;;;;;23.60;17.40;;;16.30;58.70;;;;;;5057645;28;20029;-77
2022/03/29 12:29:32;;;;;;;20.13;17.40;;;16.20;58.50;;;;;;5046314;28;20041;-78
2022/03/29 12:32:02;;;;;;;19.45;15.70;;;16.20;58.60;;;;;;5032291;28;20519;-77
2022/03/29 12:34:30;;;;;;;20.20;16.48;;;16.20;58.60;;;;;;5044871;28;20024;-77
2022/03/29 12:37:01;;;;;;;20.27;15.70;;;16.20;58.60;;;;;;5044799;28;20676;-77
2022/03/29 12:39:37;;;;;;;18.17;14.88;;;16.20;58.60;;;;;;5044558;28;20132;-77
2022/03/29 12:42:04;;;;;;;20.33;15.43;;;16.20;58.60;;;;;;5044141;28;20052;-80
2022/03/29 12:44:37;;;;;;;21.85;16.05;;;16.20;58.60;;;;;;5044585;28;20097;-80
2022/03/29 12:47:05;;;;;;;20.10;16.65;;;16.20;58.60;;;;;;5026049;28;20037;-80
2022/03/29 12:49:33;;;;;;;19.25;16.70;;;16.20;58.60;;;;;;5027969;28;20039;-80
2022/03/29 12:52:02;;;;;;;20.25;15.18;;;16.20;58.60;;;;;;5042034;28;20072;-79
2022/03/29 12:54:34;;;;;;;19.85;16.17;;;16.20;58.50;;;;;;5045134;28;20427;-80
2022/03/29 12:57:01;;;;;;;19.13;15.18;;;16.30;58.70;;;;;;5043619;28;20036;-80
2022/03/29 12:59:40;;;;;;;20.85;16.70;;;16.30;58.60;;;;;;5045708;28;20029;-79
2022/03/29 13:02:22;;;;;;;21.17;16.95;;;16.30;58.50;;;;;;5043926;28;20032;-79
2022/03/29 13:04:57;;;;;;;17.92;15.95;;;16.40;58.60;;;;;;5009823;28;20404;-79
2022/03/29 13:07:33;;;;;;;20.75;16.77;;;16.40;58.50;;;;;;5017430;28;20031;-80
2022/03/29 13:10:03;;;;;;;20.45;16.80;;;16.40;58.40;;;;;;5046122;28;20381;-78
2022/03/29 13:12:46;;;;;;;19.42;15.63;;;16.40;58.30;;;;;;5027217;28;20024;-79
2022/03/29 13:15:32;;;;;;;;;;;16.40;58.30;;;;;;5045626;28;20392;-80
2022/03/29 13:17:58;;;;;;;20.48;15.32;;;16.40;58.30;;;;;;5043876;28;20015;-78
2022/03/29 13:20:24;;;;;;;18.95;15.27;;;16.50;58.50;;;;;;5045285;28;20136;-78
2022/03/29 13:22:50;;;;;;;17.25;15.10;;;16.50;58.30;;;;;;5027362;28;20550;-78